Time;durP1;ratioP1;P1;durP2;ratioP2;P2;SDS_P1;SDS_P2;PMS_P1;PMS_P2;Temp;Humidity;BMP_temperature;BMP_pressure;BME280_temperature;BME280_humidity;BME280_pressure;Samples;Min_cycle;Max_cycle;Signal;HPM_P1;HPM_P2
2021/11/24 00:02:03;;;;;;;25.90;24.10;;;-0.40;90.50;;;;;;5072223;28;20345;-73
2021/11/24 00:04:30;;;;;;;27.08;24.95;;;-0.50;90.40;;;;;;5072555;28;20311;-73
2021/11/24 00:06:57;;;;;;;27.40;25.30;;;-0.50;90.80;;;;;;5076244;28;20613;-73
2021/11/24 00:09:25;;;;;;;26.00;24.13;;;-0.60;90.90;;;;;;5071553;28;20267;-73
2021/11/24 00:11:52;;;;;;;25.70;24.08;;;-0.50;90.90;;;;;;5085244;28;20195;-73
2021/11/24 00:14:19;;;;;;;26.45;24.52;;;-0.50;90.70;;;;;;5074614;28;20295;-73
2021/11/24 00:16:47;;;;;;;25.20;23.50;;;-0.60;90.90;;;;;;5080370;28;20275;-73
2021/11/24 00:19:14;;;;;;;26.05;24.25;;;-0.50;90.80;;;;;;5071672;28;20331;-73
2021/11/24 00:21:41;;;;;;;25.45;23.48;;;-0.60;90.60;;;;;;5087244;28;20278;-72
2021/11/24 00:24:08;;;;;;;26.63;24.83;;;-0.50;90.50;;;;;;5078389;28;20672;-73
2021/11/24 00:26:35;;;;;;;25.63;23.75;;;-0.60;90.70;;;;;;5073346;28;20701;-72
2021/11/24 00:29:02;;;;;;;25.15;23.27;;;-0.70;91.00;;;;;;5080086;28;20280;-73
2021/11/24 00:31:29;;;;;;;25.30;23.38;;;-0.70;91.40;;;;;;5072150;28;20791;-73
2021/11/24 00:33:59;;;;;;;26.33;24.23;;;-0.70;91.10;;;;;;5089834;28;20231;-73
2021/11/24 00:36:26;;;;;;;26.80;24.77;;;-0.70;91.30;;;;;;5084699;28;20238;-73
2021/11/24 00:38:53;;;;;;;24.98;23.27;;;-0.70;91.10;;;;;;5070579;28;20322;-73
2021/11/24 00:41:21;;;;;;;25.92;24.25;;;-0.60;90.90;;;;;;5072523;28;20291;-73
2021/11/24 00:43:47;;;;;;;25.23;23.48;;;-0.60;90.50;;;;;;5086116;28;20299;-73
2021/11/24 00:46:14;;;;;;;25.23;23.70;;;-0.70;90.80;;;;;;5082039;28;20287;-72
2021/11/24 00:48:42;;;;;;;25.75;23.95;;;-0.70;90.70;;;;;;5082404;28;20283;-72
2021/11/24 00:51:10;;;;;;;25.65;23.80;;;-0.80;90.80;;;;;;5071837;28;20207;-73
2021/11/24 00:53:37;;;;;;;24.75;23.15;;;-0.80;91.20;;;;;;5080225;28;20295;-73
2021/11/24 00:56:04;;;;;;;25.77;23.88;;;-0.70;90.90;;;;;;5080914;28;20211;-72
2021/11/24 00:58:31;;;;;;;24.92;23.15;;;-0.80;90.80;;;;;;5085395;28;20319;-72
2021/11/24 01:00:58;;;;;;;26.50;24.80;;;-0.80;91.00;;;;;;5076076;28;20283;-73
2021/11/24 01:03:26;;;;;;;25.50;23.77;;;-0.90;91.20;;;;;;5071077;28;20247;-72
2021/11/24 01:05:53;;;;;;;26.73;24.83;;;-0.90;91.50;;;;;;5070381;28;20219;-72
2021/11/24 01:08:22;;;;;;;26.05;24.25;;;-0.80;91.30;;;;;;5084729;28;20626;-72
2021/11/24 01:10:49;;;;;;;26.00;24.30;;;-0.80;90.90;;;;;;5070182;28;20203;-72
2021/11/24 01:13:18;;;;;;;25.70;23.70;;;-0.80;90.90;;;;;;5068142;28;20307;-72
2021/11/24 01:15:45;;;;;;;25.95;24.35;;;-0.80;90.70;;;;;;5070475;28;20192;-72
2021/11/24 01:18:12;;;;;;;26.17;24.38;;;-0.80;90.80;;;;;;5071120;28;20192;-72
2021/11/24 01:20:39;;;;;;;26.80;24.98;;;-0.80;90.50;;;;;;5069072;28;20208;-72
2021/11/24 01:23:06;;;;;;;25.00;23.30;;;-0.70;90.30;;;;;;5082735;28;20316;-72
2021/11/24 01:25:35;;;;;;;25.92;24.13;;;-0.80;90.20;;;;;;5077726;28;20276;-72
2021/11/24 01:28:02;;;;;;;26.40;24.60;;;-0.80;90.30;;;;;;5069976;28;20889;-72
2021/11/24 01:30:29;;;;;;;27.05;25.25;;;-0.80;90.30;;;;;;5070824;28;20322;-72
2021/11/24 01:32:56;;;;;;;27.75;25.88;;;-1.00;90.50;;;;;;5080913;28;20226;-72
2021/11/24 01:35:23;;;;;;;25.85;24.17;;;-1.10;91.10;;;;;;5068142;28;20287;-72
2021/11/24 01:37:50;;;;;;;26.08;24.23;;;-1.10;91.30;;;;;;5080715;28;20199;-72
2021/11/24 01:40:17;;;;;;;26.70;24.83;;;-1.00;91.20;;;;;;5070034;28;20306;-72
2021/11/24 01:42:45;;;;;;;25.98;24.27;;;-0.90;90.50;;;;;;5068414;28;20625;-72
2021/11/24 01:45:17;;;;;;;26.60;24.73;;;-0.90;90.30;;;;;;5068758;28;20239;-72
2021/11/24 01:47:44;;;;;;;25.42;23.63;;;-1.00;90.40;;;;;;5069436;28;20283;-72
2021/11/24 01:50:12;;;;;;;25.95;24.15;;;-1.00;90.50;;;;;;5067693;28;20877;-72
2021/11/24 01:52:40;;;;;;;26.67;24.88;;;-0.90;90.30;;;;;;5068639;28;20258;-72
2021/11/24 01:55:10;;;;;;;26.27;24.58;;;-1.00;90.40;;;;;;5071146;28;20204;-72
2021/11/24 01:57:39;;;;;;;25.13;23.50;;;-1.00;90.40;;;;;;5073774;28;20605;-73
2021/11/24 02:00:08;;;;;;;27.75;25.23;;;-1.10;90.40;;;;;;5071159;28;20295;-73
2021/11/24 02:02:35;;;;;;;28.00;26.02;;;-1.20;91.10;;;;;;5069302;28;20199;-73
2021/11/24 02:05:03;;;;;;;25.92;24.23;;;-1.20;91.50;;;;;;5078025;28;20235;-73
2021/11/24 02:07:30;;;;;;;26.25;24.45;;;-1.20;91.70;;;;;;5078150;28;20211;-73
2021/11/24 02:09:57;;;;;;;27.85;25.83;;;-1.20;91.60;;;;;;5073850;28;20834;-73
2021/11/24 02:12:24;;;;;;;26.08;24.38;;;-1.20;91.20;;;;;;5068277;28;20200;-73
2021/11/24 02:14:51;;;;;;;26.30;24.38;;;-1.20;91.20;;;;;;5068109;28;20307;-73
2021/11/24 02:17:19;;;;;;;27.70;25.85;;;-1.20;91.00;;;;;;5078240;28;20290;-73
2021/11/24 02:19:46;;;;;;;25.33;23.63;;;-1.20;90.80;;;;;;5083561;28;20207;-73
2021/11/24 02:22:15;;;;;;;26.73;24.73;;;-1.20;90.90;;;;;;5068681;28;20319;-72
2021/11/24 02:24:44;;;;;;;27.23;25.10;;;-1.30;91.40;;;;;;5080969;28;20208;-73
2021/11/24 02:27:12;;;;;;;26.23;24.02;;;-1.30;91.40;;;;;;5071025;28;20218;-72
2021/11/24 02:29:40;;;;;;;26.20;24.40;;;-1.30;91.30;;;;;;5069032;28;20279;-73
2021/11/24 02:32:08;;;;;;;25.95;24.13;;;-1.30;91.50;;;;;;5069203;28;20238;-73
2021/11/24 02:34:36;;;;;;;26.33;24.38;;;-1.30;91.50;;;;;;5077933;28;20246;-72
2021/11/24 02:37:04;;;;;;;25.65;23.85;;;-1.40;91.80;;;;;;5072423;28;20287;-72
2021/11/24 02:39:32;;;;;;;26.45;24.60;;;-1.40;91.90;;;;;;5070098;28;20294;-72
2021/11/24 02:42:00;;;;;;;26.60;24.75;;;-1.30;91.90;;;;;;5080322;28;20275;-72
2021/11/24 02:44:33;;;;;;;25.92;24.02;;;-1.30;91.50;;;;;;5072075;28;20262;-73
2021/11/24 02:47:08;;;;;;;28.15;26.08;;;-1.40;91.50;;;;;;5073659;28;20196;-72
2021/11/24 02:49:35;;;;;;;26.42;24.52;;;-1.40;91.80;;;;;;5074806;28;20215;-72
2021/11/24 02:52:03;;;;;;;27.42;25.52;;;-1.50;91.90;;;;;;5067175;28;20673;-72
2021/11/24 02:54:30;;;;;;;26.88;24.75;;;-1.50;92.00;;;;;;5068682;28;20299;-72
2021/11/24 02:56:59;;;;;;;25.38;23.73;;;-1.40;91.90;;;;;;5069597;28;20753;-72
2021/11/24 02:59:27;;;;;;;26.58;24.75;;;-1.50;91.90;;;;;;5077534;28;20665;-71
2021/11/24 03:01:54;;;;;;;27.35;25.45;;;-1.40;91.80;;;;;;5080529;28;20196;-71
2021/11/24 03:04:26;;;;;;;26.50;24.70;;;-1.40;91.60;;;;;;5072377;28;20251;-72
2021/11/24 03:06:53;;;;;;;25.65;23.95;;;-1.30;91.00;;;;;;5071605;28;20287;-72
2021/11/24 03:09:20;;;;;;;26.80;24.90;;;-1.40;90.80;;;;;;5084621;28;20282;-72
2021/11/24 03:11:47;;;;;;;26.85;25.00;;;-1.40;91.10;;;;;;5073182;28;20283;-72
2021/11/24 03:14:15;;;;;;;27.00;24.80;;;-1.40;90.90;;;;;;5072017;28;20302;-72
2021/11/24 03:16:42;;;;;;;24.95;23.25;;;-1.40;91.00;;;;;;5071385;28;20226;-72
2021/11/24 03:19:09;;;;;;;26.55;24.75;;;-1.40;91.20;;;;;;5071999;28;20302;-72
2021/11/24 03:21:36;;;;;;;25.67;23.98;;;-1.40;91.30;;;;;;5072601;28;20278;-72
2021/11/24 03:24:04;;;;;;;25.77;23.98;;;-1.30;91.30;;;;;;5072386;28;20311;-72
2021/11/24 03:26:31;;;;;;;26.77;24.73;;;-1.30;90.90;;;;;;5075676;28;20290;-72
2021/11/24 03:28:58;;;;;;;26.05;24.25;;;-1.30;90.40;;;;;;5077649;28;21074;-72
2021/11/24 03:31:28;;;;;;;26.42;24.58;;;-1.30;90.80;;;;;;5073872;28;21070;-72
2021/11/24 03:33:55;;;;;;;26.50;24.67;;;-1.30;90.70;;;;;;5080460;28;20231;-72
2021/11/24 03:36:22;;;;;;;25.98;24.17;;;-1.40;90.80;;;;;;5071446;28;20295;-72
2021/11/24 03:38:49;;;;;;;25.75;24.05;;;-1.30;90.70;;;;;;5084737;28;20282;-72
2021/11/24 03:41:16;;;;;;;27.00;25.13;;;-1.20;90.50;;;;;;5083092;28;20218;-72
2021/11/24 03:43:43;;;;;;;26.00;24.30;;;-1.10;90.40;;;;;;5082304;28;20243;-72
2021/11/24 03:46:10;;;;;;;25.75;23.98;;;-1.10;90.70;;;;;;5070748;28;20283;-72
2021/11/24 03:48:38;;;;;;;27.13;25.05;;;-1.20;90.50;;;;;;5075247;28;20660;-72
2021/11/24 03:51:05;;;;;;;26.90;24.92;;;-1.20;90.60;;;;;;5070906;28;20196;-72
2021/11/24 03:53:34;;;;;;;26.80;24.60;;;-1.20;90.30;;;;;;5077315;28;20277;-72
2021/11/24 03:56:01;;;;;;;27.15;25.23;;;-1.20;90.60;;;;;;5071735;28;20195;-72
2021/11/24 03:58:28;;;;;;;27.05;25.35;;;-1.30;90.80;;;;;;5071338;28;20638;-72
2021/11/24 04:00:55;;;;;;;28.02;26.23;;;-1.30;91.00;;;;;;5071154;28;20307;-72
2021/11/24 04:03:22;;;;;;;27.70;25.90;;;-1.30;90.70;;;;;;5081816;28;20303;-72
2021/11/24 04:05:52;;;;;;;28.83;26.83;;;-1.30;90.90;;;;;;5071925;28;20737;-72
2021/11/24 04:08:19;;;;;;;26.70;25.00;;;-1.30;91.00;;;;;;5071201;28;20196;-72
2021/11/24 04:10:46;;;;;;;28.05;26.25;;;-1.30;90.70;;;;;;5070975;28;20291;-72
2021/11/24 04:13:13;;;;;;;28.23;26.38;;;-1.30;90.30;;;;;;5082815;28;20317;-72
2021/11/24 04:15:41;;;;;;;29.85;27.63;;;-1.40;90.50;;;;;;5071599;28;20621;-72
2021/11/24 04:18:08;;;;;;;26.75;24.70;;;-1.50;90.80;;;;;;5072316;28;20227;-72
2021/11/24 04:20:35;;;;;;;28.83;26.88;;;-1.60;91.00;;;;;;5077328;28;20302;-72
2021/11/24 04:23:03;;;;;;;27.27;25.55;;;-1.50;90.90;;;;;;5073908;28;20724;-72
2021/11/24 04:25:30;;;;;;;27.73;25.85;;;-1.60;91.10;;;;;;5080053;28;20337;-72
2021/11/24 04:27:57;;;;;;;30.33;27.98;;;-1.60;91.30;;;;;;5071070;28;20282;-72
2021/11/24 04:30:24;;;;;;;28.55;26.55;;;-1.60;91.60;;;;;;5070887;28;20206;-71
2021/11/24 04:32:52;;;;;;;28.67;26.77;;;-1.50;91.30;;;;;;5075018;28;20196;-72
2021/11/24 04:35:20;;;;;;;27.48;25.50;;;-1.60;91.10;;;;;;5079513;28;20202;-72
2021/11/24 04:37:48;;;;;;;28.27;26.08;;;-1.60;91.40;;;;;;5079347;28;20264;-72
2021/11/24 04:40:16;;;;;;;29.00;26.90;;;-1.50;90.90;;;;;;5082291;28;20251;-72
2021/11/24 04:42:44;;;;;;;27.77;25.98;;;-1.50;90.40;;;;;;5070009;28;20739;-71
2021/11/24 04:45:11;;;;;;;27.90;25.80;;;-1.50;90.10;;;;;;5071378;28;20200;-71
2021/11/24 04:47:38;;;;;;;27.98;26.10;;;-1.50;89.90;;;;;;5082286;28;20282;-71
2021/11/24 04:50:06;;;;;;;28.42;26.45;;;-1.50;90.10;;;;;;5070497;28;20678;-71
2021/11/24 04:52:33;;;;;;;28.95;26.85;;;-1.60;90.20;;;;;;5069453;28;20196;-71
2021/11/24 04:55:00;;;;;;;27.63;25.67;;;-1.70;90.40;;;;;;5074516;28;20207;-72
2021/11/24 04:57:28;;;;;;;27.85;26.00;;;-1.60;90.40;;;;;;5076734;28;20290;-72
2021/11/24 04:59:55;;;;;;;29.50;27.33;;;-1.60;90.40;;;;;;5072123;28;20785;-71
2021/11/24 05:02:22;;;;;;;27.13;25.23;;;-1.60;90.30;;;;;;5071373;28;20283;-72
2021/11/24 05:04:49;;;;;;;28.98;26.98;;;-1.60;90.30;;;;;;5079039;28;20295;-72
2021/11/24 05:07:16;;;;;;;26.80;24.95;;;-1.70;90.40;;;;;;5077193;28;20221;-72
2021/11/24 05:09:43;;;;;;;28.17;26.20;;;-1.80;91.00;;;;;;5086295;28;20279;-71
2021/11/24 05:12:10;;;;;;;28.20;26.23;;;-1.80;91.10;;;;;;5068274;28;20685;-72
2021/11/24 05:14:39;;;;;;;29.10;26.90;;;-1.80;91.10;;;;;;5075904;28;20294;-72
2021/11/24 05:17:12;;;;;;;28.95;26.85;;;-1.80;91.40;;;;;;5080956;28;20663;-72
2021/11/24 05:19:42;;;;;;;32.30;29.90;;;-1.80;91.70;;;;;;5073965;28;20240;-72
2021/11/24 05:22:10;;;;;;;29.27;27.20;;;-1.80;91.80;;;;;;5069777;28;20234;-72
2021/11/24 05:24:37;;;;;;;29.67;27.30;;;-1.80;91.70;;;;;;5070144;28;20313;-72
2021/11/24 05:27:05;;;;;;;29.33;27.25;;;-1.80;91.60;;;;;;5070228;28;20250;-72
2021/11/24 05:29:32;;;;;;;30.55;27.75;;;-1.90;91.60;;;;;;5072414;28;20228;-72
2021/11/24 05:32:01;;;;;;;29.85;27.20;;;-1.90;92.00;;;;;;5080088;28;20224;-72
2021/11/24 05:34:28;;;;;;;33.40;29.95;;;-1.90;92.10;;;;;;5069070;28;20251;-71
2021/11/24 05:36:55;;;;;;;29.55;27.45;;;-1.90;92.30;;;;;;5081424;28;20194;-72
2021/11/24 05:39:21;;;;;;;29.58;27.27;;;-1.80;92.30;;;;;;5074965;28;20542;-72
2021/11/24 05:41:49;;;;;;;30.55;28.38;;;-1.70;92.20;;;;;;5079260;28;20239;-71
2021/11/24 05:44:20;;;;;;;30.30;27.92;;;-1.70;91.70;;;;;;5069367;28;20247;-72
2021/11/24 05:46:51;;;;;;;30.33;28.15;;;-1.70;91.70;;;;;;5069577;28;20220;-71
2021/11/24 05:49:20;;;;;;;32.50;29.95;;;-1.70;91.50;;;;;;5068812;28;20258;-70
2021/11/24 05:51:47;;;;;;;30.50;28.13;;;-1.70;91.60;;;;;;5068675;28;20196;-70
2021/11/24 05:54:14;;;;;;;30.25;28.15;;;-1.70;91.40;;;;;;5069388;28;20255;-69
2021/11/24 05:56:42;;;;;;;30.20;28.00;;;-1.60;91.10;;;;;;5067940;28;20222;-70
2021/11/24 05:59:10;;;;;;;29.90;27.90;;;-1.60;90.50;;;;;;5069839;28;20231;-72
2021/11/24 06:01:37;;;;;;;31.38;29.17;;;-1.60;90.20;;;;;;5077873;28;20308;-69
2021/11/24 06:04:05;;;;;;;30.90;28.70;;;-1.60;90.00;;;;;;5078278;28;20315;-72
2021/11/24 06:06:35;;;;;;;29.80;27.80;;;-1.80;90.70;;;;;;5076639;28;20282;-72
2021/11/24 06:09:05;;;;;;;28.83;26.75;;;-1.80;91.20;;;;;;5074485;28;20724;-71
2021/11/24 06:11:32;;;;;;;29.60;27.48;;;-1.90;91.40;;;;;;5073212;28;20211;-70
2021/11/24 06:14:00;;;;;;;31.27;28.92;;;-1.80;91.50;;;;;;5083409;28;20320;-71
2021/11/24 06:16:27;;;;;;;29.00;26.90;;;-1.80;91.30;;;;;;5069144;28;20192;-71
2021/11/24 06:18:54;;;;;;;30.67;28.55;;;-1.80;91.00;;;;;;5069312;28;20280;-71
2021/11/24 06:21:22;;;;;;;31.65;29.50;;;-1.90;91.20;;;;;;5066901;28;20251;-71
2021/11/24 06:23:51;;;;;;;30.67;28.58;;;-1.90;91.30;;;;;;5083538;28;20290;-71
2021/11/24 06:26:20;;;;;;;30.25;28.10;;;-1.90;91.10;;;;;;5073212;28;20287;-71
2021/11/24 06:28:48;;;;;;;30.35;28.15;;;-1.90;90.80;;;;;;5069626;28;20192;-73
2021/11/24 06:31:16;;;;;;;33.05;30.48;;;-1.80;90.50;;;;;;5070317;28;20645;-72
2021/11/24 06:33:43;;;;;;;31.52;29.35;;;-1.80;90.10;;;;;;5078316;28;20242;-73
2021/11/24 06:36:11;;;;;;;31.60;29.60;;;-1.80;90.10;;;;;;5068123;28;20208;-73
2021/11/24 06:38:38;;;;;;;32.72;30.27;;;-1.90;90.20;;;;;;5067207;28;20279;-73
2021/11/24 06:41:06;;;;;;;33.35;30.83;;;-2.00;90.50;;;;;;5069125;28;20251;-72
2021/11/24 06:43:33;;;;;;;34.38;31.77;;;-2.00;90.90;;;;;;5068491;28;21055;-72
2021/11/24 06:46:00;;;;;;;30.35;28.08;;;-2.10;91.50;;;;;;5079023;28;20295;-72
2021/11/24 06:48:36;;;;;;;31.05;28.88;;;-2.10;91.70;;;;;;5071214;28;20231;-70
2021/11/24 06:51:07;;;;;;;33.17;30.58;;;-2.10;91.70;;;;;;5071186;28;20254;-69
2021/11/24 06:53:34;;;;;;;31.40;29.00;;;-2.00;91.70;;;;;;5068343;28;20212;-69
2021/11/24 06:56:03;;;;;;;32.30;30.10;;;-1.90;91.30;;;;;;5072455;28;20257;-69
2021/11/24 06:58:31;;;;;;;34.30;31.55;;;-1.80;90.80;;;;;;5069325;28;20207;-69
2021/11/24 07:01:00;;;;;;;31.58;29.25;;;-1.80;90.60;;;;;;5068447;28;20211;-71
2021/11/24 07:03:27;;;;;;;32.97;30.58;;;-1.80;90.30;;;;;;5087126;28;20302;-71
2021/11/24 07:05:54;;;;;;;30.38;28.20;;;-1.80;90.20;;;;;;5078175;28;20223;-72
2021/11/24 07:08:21;;;;;;;31.10;28.90;;;-1.80;90.30;;;;;;5068056;28;20212;-71
2021/11/24 07:10:48;;;;;;;32.17;29.77;;;-1.80;90.00;;;;;;5068441;28;20642;-71
2021/11/24 07:13:16;;;;;;;30.75;28.45;;;-1.70;90.00;;;;;;5071401;28;20247;-71
2021/11/24 07:15:53;;;;;;;29.95;27.95;;;-1.80;89.90;;;;;;5076456;28;20227;-72
2021/11/24 07:18:20;;;;;;;32.20;29.25;;;-1.80;90.00;;;;;;5082360;28;20198;-71
2021/11/24 07:20:47;;;;;;;31.02;28.73;;;-1.80;90.30;;;;;;5083348;28;20318;-71
2021/11/24 07:23:13;;;;;;;34.10;31.08;;;-1.90;90.40;;;;;;5084372;28;20254;-71
2021/11/24 07:25:41;;;;;;;29.73;27.63;;;-1.80;91.70;;;;;;5077934;28;20662;-71
2021/11/24 07:28:10;;;;;;;32.10;29.70;;;-1.90;91.40;;;;;;5080878;28;20235;-71
2021/11/24 07:30:37;;;;;;;32.38;29.98;;;-1.80;91.60;;;;;;5068308;28;20250;-71
2021/11/24 07:33:06;;;;;;;31.98;29.17;;;-1.70;91.40;;;;;;5073619;28;20216;-71
2021/11/24 07:35:33;;;;;;;32.97;30.45;;;-1.50;90.90;;;;;;5078391;28;20273;-71
2021/11/24 07:38:01;;;;;;;33.15;30.55;;;-1.50;90.30;;;;;;5068422;28;20291;-71
2021/11/24 07:40:28;;;;;;;33.00;30.50;;;-1.40;90.10;;;;;;5067928;28;20202;-72
2021/11/24 07:42:55;;;;;;;32.28;29.98;;;-1.40;90.40;;;;;;5082236;28;20302;-72
2021/11/24 07:45:22;;;;;;;30.98;28.67;;;-1.40;90.70;;;;;;5068333;28;20291;-71
2021/11/24 07:47:49;;;;;;;33.00;30.50;;;-1.30;90.70;;;;;;5088006;28;20288;-70
2021/11/24 07:50:18;;;;;;;31.95;29.55;;;-1.10;90.60;;;;;;5074402;28;20235;-70
2021/11/24 07:52:45;;;;;;;34.20;31.23;;;-0.90;89.80;;;;;;5087530;28;20202;-71
2021/11/24 07:55:12;;;;;;;31.52;29.23;;;-0.70;89.30;;;;;;5083488;28;20299;-70
2021/11/24 07:57:39;;;;;;;32.00;29.52;;;-0.60;88.50;;;;;;5083522;28;20599;-70
2021/11/24 08:00:07;;;;;;;32.47;30.02;;;-0.60;88.40;;;;;;5071848;28;20236;-71
2021/11/24 08:02:34;;;;;;;32.83;30.60;;;-0.50;88.30;;;;;;5074060;28;20243;-70
2021/11/24 08:05:03;;;;;;;33.33;30.85;;;-0.30;88.40;;;;;;5077199;28;20295;-70
2021/11/24 08:07:32;;;;;;;32.42;29.85;;;-0.10;87.60;;;;;;5070685;28;20278;-70
2021/11/24 08:09:59;;;;;;;32.65;30.20;;;0.10;87.10;;;;;;5071859;28;20257;-70
2021/11/24 08:12:26;;;;;;;35.53;32.45;;;0.20;86.50;;;;;;5077315;28;20793;-70
2021/11/24 08:14:53;;;;;;;35.55;32.50;;;0.20;85.80;;;;;;5070744;28;20216;-72
2021/11/24 08:17:20;;;;;;;34.92;32.40;;;0.30;85.70;;;;;;5085798;28;20200;-72
2021/11/24 08:19:47;;;;;;;35.78;32.58;;;0.20;85.50;;;;;;5080580;28;20200;-72
2021/11/24 08:22:14;;;;;;;34.00;31.50;;;0.30;85.20;;;;;;5071422;28;20211;-71
2021/11/24 08:24:42;;;;;;;35.08;32.22;;;0.20;85.30;;;;;;5088370;28;20274;-71
2021/11/24 08:27:10;;;;;;;33.15;30.63;;;0.20;85.70;;;;;;5079774;28;20240;-73
2021/11/24 08:29:37;;;;;;;33.53;30.98;;;0.30;85.50;;;;;;5071008;28;20206;-71
2021/11/24 08:32:04;;;;;;;31.60;29.50;;;0.40;85.10;;;;;;5073053;28;20286;-71
2021/11/24 08:34:31;;;;;;;32.25;29.92;;;0.50;85.20;;;;;;5072169;28;20638;-71
2021/11/24 08:36:58;;;;;;;34.90;32.30;;;0.70;84.80;;;;;;5074279;28;20673;-71
2021/11/24 08:39:25;;;;;;;34.13;31.90;;;0.80;84.90;;;;;;5074348;28;20986;-71
2021/11/24 08:41:54;;;;;;;33.60;31.00;;;0.80;85.10;;;;;;5069915;28;20661;-71
2021/11/24 08:44:21;;;;;;;35.33;32.50;;;1.00;84.70;;;;;;5069693;28;20801;-70
2021/11/24 08:46:48;;;;;;;35.53;32.95;;;0.90;84.60;;;;;;5079228;28;20302;-71
2021/11/24 08:49:15;;;;;;;37.25;34.17;;;1.10;84.90;;;;;;5070745;28;20263;-71
2021/11/24 08:51:42;;;;;;;36.42;33.20;;;1.30;84.80;;;;;;5070482;28;20282;-71
2021/11/24 08:54:11;;;;;;;39.17;36.08;;;1.40;84.50;;;;;;5068102;28;20737;-71
2021/11/24 08:56:39;;;;;;;36.65;33.72;;;1.40;86.70;;;;;;5069435;28;20542;-70
2021/11/24 08:59:08;;;;;;;35.95;33.15;;;1.50;86.50;;;;;;5070358;28;20284;-71
2021/11/24 09:01:36;;;;;;;34.25;31.45;;;1.60;86.80;;;;;;5078510;28;20226;-71
2021/11/24 09:04:04;;;;;;;35.85;33.00;;;1.80;86.10;;;;;;5070232;28;20288;-71
2021/11/24 09:06:31;;;;;;;38.30;35.35;;;2.00;86.20;;;;;;5078706;28;20285;-71
2021/11/24 09:08:58;;;;;;;36.75;33.85;;;2.10;86.10;;;;;;5079611;28;20254;-71
2021/11/24 09:11:25;;;;;;;34.75;31.98;;;2.20;85.50;;;;;;5076081;28;20950;-71
2021/11/24 09:13:52;;;;;;;36.03;33.03;;;2.40;85.30;;;;;;5072604;28;20260;-72
2021/11/24 09:16:21;;;;;;;38.35;35.08;;;2.40;84.50;;;;;;5071424;28;20376;-72
2021/11/24 09:18:48;;;;;;;38.17;34.83;;;2.70;84.60;;;;;;5076958;28;20227;-72
2021/11/24 09:21:14;;;;;;;36.97;33.78;;;2.80;84.10;;;;;;5082978;28;20306;-72
2021/11/24 09:23:44;;;;;;;37.15;34.20;;;2.70;84.80;;;;;;5078395;28;20642;-71
2021/11/24 09:26:19;;;;;;;40.28;36.60;;;2.90;84.70;;;;;;5070881;28;20215;-71
2021/11/24 09:28:47;;;;;;;39.13;35.53;;;2.90;84.90;;;;;;5090241;28;20216;-71
2021/11/24 09:31:14;;;;;;;38.00;34.55;;;2.80;85.10;;;;;;5084722;28;20574;-71
2021/11/24 09:33:42;;;;;;;37.05;34.00;;;2.90;85.60;;;;;;5069022;28;20220;-71
2021/11/24 09:36:10;;;;;;;37.92;34.78;;;3.00;84.90;;;;;;5087213;28;20271;-71
2021/11/24 09:38:37;;;;;;;35.90;32.85;;;2.70;85.50;;;;;;5079570;28;20199;-71
2021/11/24 09:41:06;;;;;;;38.40;35.30;;;2.70;86.10;;;;;;5077477;28;20226;-71
2021/11/24 09:43:36;;;;;;;38.92;35.17;;;2.80;86.00;;;;;;5074118;28;20240;-71
2021/11/24 09:46:04;;;;;;;37.00;33.90;;;3.00;85.10;;;;;;5072475;28;20244;-71
2021/11/24 09:48:32;;;;;;;39.33;35.67;;;3.00;85.00;;;;;;5073256;28;20239;-70
2021/11/24 09:51:03;;;;;;;38.80;35.47;;;3.10;84.10;;;;;;5069442;28;20245;-73
2021/11/24 09:53:31;;;;;;;36.53;33.45;;;3.20;84.00;;;;;;5068024;28;20816;-71
2021/11/24 09:55:58;;;;;;;37.85;34.78;;;3.10;84.60;;;;;;5067718;28;20283;-71
2021/11/24 09:58:25;;;;;;;36.67;33.45;;;3.10;84.60;;;;;;5088480;28;20237;-71
2021/11/24 10:00:52;;;;;;;37.83;34.47;;;3.10;84.10;;;;;;5077774;28;20278;-70
2021/11/24 10:03:19;;;;;;;35.50;32.58;;;3.30;83.70;;;;;;5079773;28;20227;-71
2021/11/24 10:05:48;;;;;;;36.25;33.20;;;3.40;83.40;;;;;;5068262;28;20218;-70
2021/11/24 10:08:16;;;;;;;37.30;34.15;;;3.50;82.80;;;;;;5074335;28;20203;-70
2021/11/24 10:10:43;;;;;;;38.05;34.95;;;3.40;82.40;;;;;;5067594;28;20227;-70
2021/11/24 10:13:13;;;;;;;34.97;32.08;;;3.40;82.80;;;;;;5076021;28;20265;-71
2021/11/24 10:15:43;;;;;;;35.53;32.78;;;3.60;82.20;;;;;;5070528;28;20230;-71
2021/11/24 10:18:20;;;;;;;37.28;34.08;;;3.70;81.90;;;;;;5068465;28;20291;-71
2021/11/24 10:20:58;;;;;;;38.03;34.85;;;3.90;81.40;;;;;;5069056;28;20279;-71
2021/11/24 10:23:32;;;;;;;36.33;33.50;;;4.00;80.60;;;;;;5066975;28;20313;-71
2021/11/24 10:26:15;;;;;;;38.58;35.15;;;4.00;80.80;;;;;;5068030;28;20207;-71
2021/11/24 10:28:50;;;;;;;35.28;32.47;;;4.10;80.90;;;;;;5055262;28;20223;-71
2021/11/24 10:31:36;;;;;;;37.83;34.92;;;4.20;80.90;;;;;;5069508;28;20238;-71
2021/11/24 10:34:13;;;;;;;36.42;33.47;;;4.40;80.70;;;;;;5069828;28;20712;-71
2021/11/24 10:36:51;;;;;;;36.80;33.80;;;4.70;78.70;;;;;;5087801;28;20651;-72
2021/11/24 10:39:20;;;;;;;34.55;31.92;;;4.70;79.10;;;;;;5073458;28;20288;-71
2021/11/24 10:41:49;;;;;;;35.42;32.65;;;4.70;81.90;;;;;;5067470;28;20238;-72
2021/11/24 10:44:26;;;;;;;35.75;32.95;;;4.90;78.30;;;;;;5070884;28;20222;-72
2021/11/24 10:46:55;;;;;;;36.45;33.28;;;4.90;78.00;;;;;;5067165;28;20293;-72
2021/11/24 10:49:31;;;;;;;35.83;33.08;;;5.00;78.80;;;;;;5068168;28;20652;-72
2021/11/24 10:51:58;;;;;;;36.72;33.63;;;5.00;79.60;;;;;;5077243;28;20275;-72
2021/11/24 10:54:27;;;;;;;879.65;121.45;;;5.20;79.10;;;;;;5077773;28;20302;-72
2021/11/24 10:57:06;;;;;;;37.78;34.67;;;5.40;79.10;;;;;;5067930;28;20199;-72
2021/11/24 10:59:36;;;;;;;39.45;36.13;;;5.50;78.00;;;;;;5072564;28;20198;-72
2021/11/24 11:02:18;;;;;;;37.95;34.50;;;5.40;76.50;;;;;;5078032;28;20322;-72
2021/11/24 11:04:59;;;;;;;37.72;34.80;;;5.60;75.70;;;;;;5081555;28;20732;-72
2021/11/24 11:07:27;;;;;;;39.15;35.67;;;5.80;74.60;;;;;;5067707;28;20234;-72
2021/11/24 11:10:17;;;;;;;38.33;35.22;;;5.80;75.30;;;;;;5066163;28;20283;-72
2021/11/24 11:12:46;;;;;;;37.20;34.20;;;5.80;73.80;;;;;;5065661;28;20275;-72
2021/11/24 11:15:23;;;;;;;37.10;34.38;;;5.30;74.60;;;;;;5077627;28;20256;-72
2021/11/24 11:17:53;;;;;;;37.03;33.88;;;5.20;75.50;;;;;;5084525;28;20210;-72
2021/11/24 11:20:21;;;;;;;39.20;36.20;;;5.20;75.20;;;;;;5075802;28;20200;-72
2021/11/24 11:22:54;;;;;;;39.50;36.03;;;5.40;74.90;;;;;;5073087;28;20800;-72
2021/11/24 11:25:23;;;;;;;36.80;33.80;;;5.50;74.60;;;;;;5071459;28;20234;-72
2021/11/24 11:27:51;;;;;;;37.58;34.67;;;5.60;73.90;;;;;;5075063;28;22057;-72
2021/11/24 11:30:18;;;;;;;38.22;35.03;;;5.50;75.70;;;;;;5071098;28;20222;-72
2021/11/24 11:32:48;;;;;;;37.42;34.42;;;5.60;74.90;;;;;;5087285;28;20302;-72
2021/11/24 11:35:16;;;;;;;38.00;35.13;;;5.80;73.20;;;;;;5071826;28;20279;-72
2021/11/24 11:37:43;;;;;;;35.80;33.10;;;5.50;73.40;;;;;;5070906;28;20304;-72
2021/11/24 11:40:15;;;;;;;38.65;35.65;;;5.60;74.30;;;;;;5071235;28;20282;-72
2021/11/24 11:42:44;;;;;;;37.22;33.92;;;5.60;73.50;;;;;;5084430;28;20227;-72
2021/11/24 11:45:13;;;;;;;37.38;34.47;;;5.50;74.90;;;;;;5071664;28;20291;-72
2021/11/24 11:47:50;;;;;;;37.20;34.08;;;5.50;75.00;;;;;;5077834;28;20196;-72
2021/11/24 11:51:02;;;;;;;36.45;33.75;;;5.60;72.90;;;;;;5079350;28;20584;-72
2021/11/24 11:53:33;;;;;;;34.85;32.05;;;5.70;71.90;;;;;;5015332;28;20583;-72
2021/11/24 11:56:15;;;;;;;37.22;34.10;;;5.50;72.00;;;;;;5062139;28;20294;-72
2021/11/24 11:58:59;;;;;;;34.80;32.00;;;5.40;76.10;;;;;;5081314;28;20199;-72
2021/11/24 12:01:29;;;;;;;35.95;33.33;;;5.40;75.50;;;;;;5071151;28;20283;-72
2021/11/24 12:04:19;;;;;;;36.60;33.78;;;5.30;75.00;;;;;;5070899;28;20910;-72
2021/11/24 12:06:48;;;;;;;36.13;33.33;;;5.40;74.60;;;;;;5070169;28;20208;-72
2021/11/24 12:09:27;;;;;;;35.22;32.42;;;5.50;73.30;;;;;;5070393;28;20278;-72
2021/11/24 12:12:12;;;;;;;34.75;32.15;;;5.60;72.60;;;;;;5071295;28;20322;-72
2021/11/24 12:15:03;;;;;;;35.47;32.63;;;5.60;73.40;;;;;;5079072;28;20235;-72
2021/11/24 12:17:52;;;;;;;33.85;31.27;;;5.40;73.40;;;;;;5074259;28;20202;-72
2021/11/24 12:20:41;;;;;;;34.95;32.30;;;5.30;73.20;;;;;;5069828;28;20292;-71
2021/11/24 12:23:21;;;;;;;33.90;31.33;;;5.50;72.50;;;;;;5074073;28;20303;-69
2021/11/24 12:25:50;;;;;;;34.55;31.85;;;5.50;72.50;;;;;;5071359;28;20211;-70
2021/11/24 12:28:20;;;;;;;34.95;32.10;;;5.40;72.60;;;;;;5083119;28;20203;-70
2021/11/24 12:31:03;;;;;;;33.85;31.35;;;5.40;72.40;;;;;;5075376;28;20287;-70
2021/11/24 12:33:38;;;;;;;36.20;33.45;;;5.20;73.10;;;;;;5070016;28;20212;-70
2021/11/24 12:36:09;;;;;;;36.00;33.10;;;5.30;75.60;;;;;;5070838;28;20286;-70
2021/11/24 12:38:38;;;;;;;34.92;32.15;;;5.40;74.00;;;;;;5070051;28;20188;-70
2021/11/24 12:41:07;;;;;;;33.85;31.35;;;5.40;73.50;;;;;;5071315;28;20226;-69